sensor_id;sensor_type;location;lat;lon;timestamp;pressure;altitude;pressure_sealevel;temperature;humidity
40838;BME280;29632;49.168;9.848;2023-10-19T00:00:41;95253.47;;;16.42;58.32
40838;BME280;29632;49.168;9.848;2023-10-19T00:03:12;95250.06;;;16.41;58.48
40838;BME280;29632;49.168;9.848;2023-10-19T00:05:38;95248.22;;;16.42;58.52
40838;BME280;29632;49.168;9.848;2023-10-19T00:08:06;95239.34;;;16.43;58.33
40838;BME280;29632;49.168;9.848;2023-10-19T00:10:44;95242.53;;;16.45;58.44
40838;BME280;29632;49.168;9.848;2023-10-19T00:13:13;95246.03;;;16.39;58.36
40838;BME280;29632;49.168;9.848;2023-10-19T00:15:40;95231.66;;;16.41;58.35
40838;BME280;29632;49.168;9.848;2023-10-19T00:18:12;95253.03;;;16.45;58.55
40838;BME280;29632;49.168;9.848;2023-10-19T00:20:41;95240.50;;;16.47;58.68
40838;BME280;29632;49.168;9.848;2023-10-19T00:23:30;95248.16;;;16.49;58.65
40838;BME280;29632;49.168;9.848;2023-10-19T00:26:03;95238.44;;;16.49;58.84
40838;BME280;29632;49.168;9.848;2023-10-19T00:28:36;95227.72;;;16.51;58.66
40838;BME280;29632;49.168;9.848;2023-10-19T00:31:04;95238.00;;;16.52;58.59
40838;BME280;29632;49.168;9.848;2023-10-19T00:33:34;95230.94;;;16.53;58.77
40838;BME280;29632;49.168;9.848;2023-10-19T00:36:08;95232.81;;;16.46;58.74
40838;BME280;29632;49.168;9.848;2023-10-19T00:38:38;95231.75;;;16.53;58.90
40838;BME280;29632;49.168;9.848;2023-10-19T00:41:09;95231.59;;;16.48;58.50
40838;BME280;29632;49.168;9.848;2023-10-19T00:43:37;95239.63;;;16.53;58.60
40838;BME280;29632;49.168;9.848;2023-10-19T00:46:19;95230.28;;;16.57;58.78
40838;BME280;29632;49.168;9.848;2023-10-19T00:51:22;95216.84;;;16.66;59.01
40838;BME280;29632;49.168;9.848;2023-10-19T00:57:00;95232.69;;;16.59;59.08
40838;BME280;29632;49.168;9.848;2023-10-19T00:59:49;95216.34;;;16.57;59.04
40838;BME280;29632;49.168;9.848;2023-10-19T01:02:18;95212.31;;;16.54;59.23
40838;BME280;29632;49.168;9.848;2023-10-19T01:04:49;95210.94;;;16.52;59.40
40838;BME280;29632;49.168;9.848;2023-10-19T01:07:25;95213.00;;;16.50;59.36
40838;BME280;29632;49.168;9.848;2023-10-19T01:09:59;95205.09;;;16.50;59.52
40838;BME280;29632;49.168;9.848;2023-10-19T01:12:27;95201.22;;;16.52;59.31
40838;BME280;29632;49.168;9.848;2023-10-19T01:17:32;95206.69;;;16.51;59.40
40838;BME280;29632;49.168;9.848;2023-10-19T01:20:08;95199.84;;;16.50;59.52
40838;BME280;29632;49.168;9.848;2023-10-19T01:22:55;95198.03;;;16.50;59.46
40838;BME280;29632;49.168;9.848;2023-10-19T01:28:37;95181.75;;;16.41;59.79
40838;BME280;29632;49.168;9.848;2023-10-19T01:33:56;95166.34;;;16.45;59.75
40838;BME280;29632;49.168;9.848;2023-10-19T01:36:23;95171.16;;;16.48;59.81
40838;BME280;29632;49.168;9.848;2023-10-19T01:38:51;95173.56;;;16.50;59.85
40838;BME280;29632;49.168;9.848;2023-10-19T01:41:20;95175.38;;;16.49;59.91
40838;BME280;29632;49.168;9.848;2023-10-19T01:43:48;95159.41;;;16.51;60.04
40838;BME280;29632;49.168;9.848;2023-10-19T01:46:17;95178.63;;;16.51;60.13
40838;BME280;29632;49.168;9.848;2023-10-19T01:48:49;95162.03;;;16.51;60.26
40838;BME280;29632;49.168;9.848;2023-10-19T01:51:19;95172.31;;;16.52;60.11
40838;BME280;29632;49.168;9.848;2023-10-19T01:53:46;95175.75;;;16.53;60.28
40838;BME280;29632;49.168;9.848;2023-10-19T01:56:16;95169.69;;;16.52;60.37
40838;BME280;29632;49.168;9.848;2023-10-19T01:58:45;95175.53;;;16.54;60.47
40838;BME280;29632;49.168;9.848;2023-10-19T02:01:16;95165.00;;;16.54;60.58
40838;BME280;29632;49.168;9.848;2023-10-19T02:03:44;95161.72;;;16.59;60.77
40838;BME280;29632;49.168;9.848;2023-10-19T02:06:12;95167.34;;;16.63;60.74
40838;BME280;29632;49.168;9.848;2023-10-19T02:08:59;95155.56;;;16.65;60.92
40838;BME280;29632;49.168;9.848;2023-10-19T02:11:27;95159.16;;;16.71;60.89
40838;BME280;29632;49.168;9.848;2023-10-19T02:13:56;95153.44;;;16.74;60.95
40838;BME280;29632;49.168;9.848;2023-10-19T02:16:27;95148.56;;;16.77;61.10
40838;BME280;29632;49.168;9.848;2023-10-19T02:18:55;95132.34;;;16.80;61.15
40838;BME280;29632;49.168;9.848;2023-10-19T02:21:21;95124.03;;;16.84;61.52
40838;BME280;29632;49.168;9.848;2023-10-19T02:23:56;95123.59;;;16.87;61.87
40838;BME280;29632;49.168;9.848;2023-10-19T02:26:23;95113.44;;;16.90;62.60
40838;BME280;29632;49.168;9.848;2023-10-19T02:28:53;95108.53;;;16.94;62.89
40838;BME280;29632;49.168;9.848;2023-10-19T02:31:20;95100.78;;;16.99;62.95
40838;BME280;29632;49.168;9.848;2023-10-19T02:33:51;95101.91;;;17.03;63.38
40838;BME280;29632;49.168;9.848;2023-10-19T02:36:21;95100.91;;;17.04;63.75
40838;BME280;29632;49.168;9.848;2023-10-19T02:38:47;95096.56;;;17.10;64.20
40838;BME280;29632;49.168;9.848;2023-10-19T02:41:17;95097.69;;;17.14;64.42
40838;BME280;29632;49.168;9.848;2023-10-19T02:43:43;95092.56;;;17.19;64.64
40838;BME280;29632;49.168;9.848;2023-10-19T02:46:13;95097.72;;;17.26;64.71
40838;BME280;29632;49.168;9.848;2023-10-19T02:48:40;95090.41;;;17.28;64.44
40838;BME280;29632;49.168;9.848;2023-10-19T02:51:13;95087.31;;;17.31;65.07
40838;BME280;29632;49.168;9.848;2023-10-19T02:53:42;95081.63;;;17.34;65.01
40838;BME280;29632;49.168;9.848;2023-10-19T02:56:15;95088.25;;;17.36;65.12
40838;BME280;29632;49.168;9.848;2023-10-19T02:58:49;95076.81;;;17.43;64.92
40838;BME280;29632;49.168;9.848;2023-10-19T03:01:20;95075.09;;;17.48;65.21
40838;BME280;29632;49.168;9.848;2023-10-19T03:03:54;95074.19;;;17.54;64.97
40838;BME280;29632;49.168;9.848;2023-10-19T03:06:21;95072.47;;;17.60;64.96
40838;BME280;29632;49.168;9.848;2023-10-19T03:08:48;95067.31;;;17.65;64.82
40838;BME280;29632;49.168;9.848;2023-10-19T03:11:17;95068.22;;;17.71;64.71
40838;BME280;29632;49.168;9.848;2023-10-19T03:13:45;95062.06;;;17.77;64.64
40838;BME280;29632;49.168;9.848;2023-10-19T03:16:10;95061.34;;;17.82;64.58
40838;BME280;29632;49.168;9.848;2023-10-19T03:18:36;95059.06;;;17.85;64.46
40838;BME280;29632;49.168;9.848;2023-10-19T03:21:05;95059.97;;;17.91;64.75
40838;BME280;29632;49.168;9.848;2023-10-19T03:23:31;95061.94;;;17.96;64.33
40838;BME280;29632;49.168;9.848;2023-10-19T03:26:00;95061.47;;;17.99;64.58
40838;BME280;29632;49.168;9.848;2023-10-19T03:28:50;95065.22;;;18.03;64.24
40838;BME280;29632;49.168;9.848;2023-10-19T03:31:22;95063.66;;;18.02;64.24
40838;BME280;29632;49.168;9.848;2023-10-19T03:33:49;95073.03;;;17.98;64.89
40838;BME280;29632;49.168;9.848;2023-10-19T03:36:24;95058.28;;;17.97;64.74
40838;BME280;29632;49.168;9.848;2023-10-19T03:38:50;95053.34;;;18.00;64.49
40838;BME280;29632;49.168;9.848;2023-10-19T03:41:19;95055.75;;;18.02;64.59
40838;BME280;29632;49.168;9.848;2023-10-19T03:43:53;95054.00;;;18.07;64.49
40838;BME280;29632;49.168;9.848;2023-10-19T03:46:20;95056.97;;;18.11;64.39
40838;BME280;29632;49.168;9.848;2023-10-19T03:48:59;95048.63;;;18.14;63.98
40838;BME280;29632;49.168;9.848;2023-10-19T03:51:29;95041.84;;;18.18;64.14
40838;BME280;29632;49.168;9.848;2023-10-19T03:54:06;95039.31;;;18.23;63.89
40838;BME280;29632;49.168;9.848;2023-10-19T03:56:49;95034.81;;;18.24;63.86
40838;BME280;29632;49.168;9.848;2023-10-19T03:59:16;95031.50;;;18.28;63.60
40838;BME280;29632;49.168;9.848;2023-10-19T04:01:43;95031.03;;;18.32;63.68
40838;BME280;29632;49.168;9.848;2023-10-19T04:04:10;95031.13;;;18.37;63.93
40838;BME280;29632;49.168;9.848;2023-10-19T04:06:36;95020.91;;;18.40;63.74
40838;BME280;29632;49.168;9.848;2023-10-19T04:09:03;95017.00;;;18.43;63.78
40838;BME280;29632;49.168;9.848;2023-10-19T04:11:32;95022.81;;;18.45;63.51
40838;BME280;29632;49.168;9.848;2023-10-19T04:14:10;95012.88;;;18.47;63.00
40838;BME280;29632;49.168;9.848;2023-10-19T04:16:36;95018.94;;;18.47;63.35
40838;BME280;29632;49.168;9.848;2023-10-19T04:19:02;95007.94;;;18.51;63.45
40838;BME280;29632;49.168;9.848;2023-10-19T04:21:30;95006.09;;;18.51;63.29
40838;BME280;29632;49.168;9.848;2023-10-19T04:23:56;95004.00;;;18.53;63.41
40838;BME280;29632;49.168;9.848;2023-10-19T04:26:22;94994.00;;;18.55;63.11
40838;BME280;29632;49.168;9.848;2023-10-19T04:28:50;94984.28;;;18.56;63.04
40838;BME280;29632;49.168;9.848;2023-10-19T04:31:17;94988.28;;;18.58;63.23
40838;BME280;29632;49.168;9.848;2023-10-19T04:33:44;94980.13;;;18.60;63.11
40838;BME280;29632;49.168;9.848;2023-10-19T04:36:14;94985.16;;;18.61;63.04
40838;BME280;29632;49.168;9.848;2023-10-19T04:38:40;94984.13;;;18.62;63.06
40838;BME280;29632;49.168;9.848;2023-10-19T04:41:07;94980.69;;;18.62;62.78
40838;BME280;29632;49.168;9.848;2023-10-19T04:43:38;94982.31;;;18.63;62.90
40838;BME280;29632;49.168;9.848;2023-10-19T04:46:09;94977.81;;;18.63;62.77
40838;BME280;29632;49.168;9.848;2023-10-19T04:48:41;94980.69;;;18.62;62.88
40838;BME280;29632;49.168;9.848;2023-10-19T04:51:08;94983.09;;;18.63;62.83
40838;BME280;29632;49.168;9.848;2023-10-19T04:53:37;94972.53;;;18.63;62.72
40838;BME280;29632;49.168;9.848;2023-10-19T04:56:07;94969.91;;;18.63;62.68
40838;BME280;29632;49.168;9.848;2023-10-19T04:58:34;94965.84;;;18.56;62.57
40838;BME280;29632;49.168;9.848;2023-10-19T05:01:00;94962.69;;;18.59;62.87
40838;BME280;29632;49.168;9.848;2023-10-19T05:03:29;94964.88;;;18.62;62.56
40838;BME280;29632;49.168;9.848;2023-10-19T05:05:55;94968.31;;;18.62;62.56
40838;BME280;29632;49.168;9.848;2023-10-19T05:08:24;94969.91;;;18.63;62.68
40838;BME280;29632;49.168;9.848;2023-10-19T05:10:54;94965.44;;;18.64;62.66
40838;BME280;29632;49.168;9.848;2023-10-19T05:13:24;94958.56;;;18.63;62.62
40838;BME280;29632;49.168;9.848;2023-10-19T05:15:52;94963.59;;;18.64;62.42
40838;BME280;29632;49.168;9.848;2023-10-19T05:18:19;94968.88;;;18.64;62.39
40838;BME280;29632;49.168;9.848;2023-10-19T05:20:46;94969.91;;;18.63;62.47
40838;BME280;29632;49.168;9.848;2023-10-19T05:23:12;94972.00;;;18.61;62.28
40838;BME280;29632;49.168;9.848;2023-10-19T05:25:39;94970.63;;;18.59;62.54
40838;BME280;29632;49.168;9.848;2023-10-19T05:28:06;94972.22;;;18.60;62.45
40838;BME280;29632;49.168;9.848;2023-10-19T05:30:33;94975.88;;;18.59;62.60
40838;BME280;29632;49.168;9.848;2023-10-19T05:32:59;94964.56;;;18.58;62.33
40838;BME280;29632;49.168;9.848;2023-10-19T05:35:28;94970.06;;;18.57;62.20
40838;BME280;29632;49.168;9.848;2023-10-19T05:37:55;94975.56;;;18.55;62.31
40838;BME280;29632;49.168;9.848;2023-10-19T05:40:24;94976.03;;;18.52;62.36
40838;BME280;29632;49.168;9.848;2023-10-19T05:42:55;94970.44;;;18.48;62.62
40838;BME280;29632;49.168;9.848;2023-10-19T05:45:22;94983.63;;;18.48;62.44
40838;BME280;29632;49.168;9.848;2023-10-19T05:47:47;94977.00;;;18.46;62.57
40838;BME280;29632;49.168;9.848;2023-10-19T05:50:13;94985.13;;;18.44;62.38
40838;BME280;29632;49.168;9.848;2023-10-19T05:52:43;94980.66;;;18.45;62.32
40838;BME280;29632;49.168;9.848;2023-10-19T05:55:12;94980.09;;;18.43;62.17
40838;BME280;29632;49.168;9.848;2023-10-19T05:57:39;94985.59;;;18.41;62.34
40838;BME280;29632;49.168;9.848;2023-10-19T06:00:11;94987.44;;;18.41;62.12
40838;BME280;29632;49.168;9.848;2023-10-19T06:02:45;94990.88;;;18.41;62.08
40838;BME280;29632;49.168;9.848;2023-10-19T06:05:13;94987.69;;;18.39;62.12
40838;BME280;29632;49.168;9.848;2023-10-19T06:07:42;94995.81;;;18.38;62.02
40838;BME280;29632;49.168;9.848;2023-10-19T06:10:12;95005.00;;;18.35;62.19
40838;BME280;29632;49.168;9.848;2023-10-19T06:12:45;95010.19;;;18.30;61.83
40838;BME280;29632;49.168;9.848;2023-10-19T06:15:12;95004.69;;;18.32;62.04
40838;BME280;29632;49.168;9.848;2023-10-19T06:17:40;95008.66;;;18.34;61.91
40838;BME280;29632;49.168;9.848;2023-10-19T06:20:12;95005.56;;;18.37;61.94
40838;BME280;29632;49.168;9.848;2023-10-19T06:22:57;95009.81;;;18.38;61.78
40838;BME280;29632;49.168;9.848;2023-10-19T06:25:30;95001.09;;;18.38;61.74
40838;BME280;29632;49.168;9.848;2023-10-19T06:27:56;95004.53;;;18.38;62.12
40838;BME280;29632;49.168;9.848;2023-10-19T06:30:25;95006.13;;;18.39;61.93
40838;BME280;29632;49.168;9.848;2023-10-19T06:32:55;95000.84;;;18.39;62.11
40838;BME280;29632;49.168;9.848;2023-10-19T06:35:22;95004.53;;;18.38;61.82
40838;BME280;29632;49.168;9.848;2023-10-19T06:37:49;94999.50;;;18.37;61.83
40838;BME280;29632;49.168;9.848;2023-10-19T06:40:17;94995.25;;;18.36;61.83
40838;BME280;29632;49.168;9.848;2023-10-19T06:42:46;94988.06;;;18.31;62.08
40838;BME280;29632;49.168;9.848;2023-10-19T06:45:13;94983.75;;;18.25;62.15
40838;BME280;29632;49.168;9.848;2023-10-19T06:47:49;94985.31;;;18.26;62.10
40838;BME280;29632;49.168;9.848;2023-10-19T06:50:19;94995.97;;;18.31;62.21
40838;BME280;29632;49.168;9.848;2023-10-19T06:52:46;95005.16;;;18.28;62.17
40838;BME280;29632;49.168;9.848;2023-10-19T06:55:17;95003.31;;;18.29;61.87
40838;BME280;29632;49.168;9.848;2023-10-19T06:57:50;95002.28;;;18.30;62.02
40838;BME280;29632;49.168;9.848;2023-10-19T07:00:18;94998.59;;;18.31;62.00
40838;BME280;29632;49.168;9.848;2023-10-19T07:03:07;95003.63;;;18.33;61.92
40838;BME280;29632;49.168;9.848;2023-10-19T07:05:33;95005.81;;;18.36;61.99
40838;BME280;29632;49.168;9.848;2023-10-19T07:08:00;95008.22;;;18.37;61.63
40838;BME280;29632;49.168;9.848;2023-10-19T07:10:27;95004.28;;;18.40;61.71
40838;BME280;29632;49.168;9.848;2023-10-19T07:12:55;95009.09;;;18.43;61.58
40838;BME280;29632;49.168;9.848;2023-10-19T07:15:22;95004.97;;;18.47;62.02
40838;BME280;29632;49.168;9.848;2023-10-19T07:17:51;94996.78;;;18.48;61.86
40838;BME280;29632;49.168;9.848;2023-10-19T07:20:20;94999.19;;;18.50;61.91
40838;BME280;29632;49.168;9.848;2023-10-19T07:22:59;94996.00;;;18.48;61.83
40838;BME280;29632;49.168;9.848;2023-10-19T07:25:28;95000.25;;;18.49;62.09
40838;BME280;29632;49.168;9.848;2023-10-19T07:27:54;94995.31;;;18.53;61.92
40838;BME280;29632;49.168;9.848;2023-10-19T07:30:21;94988.50;;;18.57;62.06
40838;BME280;29632;49.168;9.848;2023-10-19T07:32:49;94987.47;;;18.58;62.49
40838;BME280;29632;49.168;9.848;2023-10-19T07:35:23;94989.63;;;18.61;62.33
40838;BME280;29632;49.168;9.848;2023-10-19T07:37:51;94993.97;;;18.67;61.99
40838;BME280;29632;49.168;9.848;2023-10-19T07:40:18;95003.56;;;18.73;62.25
40838;BME280;29632;49.168;9.848;2023-10-19T07:42:45;95004.44;;;18.79;62.13
40838;BME280;29632;49.168;9.848;2023-10-19T07:45:12;94998.72;;;18.82;62.07
40838;BME280;29632;49.168;9.848;2023-10-19T07:47:39;95004.31;;;18.85;62.14
40838;BME280;29632;49.168;9.848;2023-10-19T07:50:08;94999.84;;;18.86;62.35
40838;BME280;29632;49.168;9.848;2023-10-19T07:52:42;95006.22;;;18.90;62.35
40838;BME280;29632;49.168;9.848;2023-10-19T07:55:09;95003.34;;;18.92;62.56
40838;BME280;29632;49.168;9.848;2023-10-19T07:57:36;94991.78;;;18.93;62.81
40838;BME280;29632;49.168;9.848;2023-10-19T08:00:02;94990.16;;;18.92;62.36
40838;BME280;29632;49.168;9.848;2023-10-19T08:02:29;94976.41;;;18.90;62.70
40838;BME280;29632;49.168;9.848;2023-10-19T08:04:56;94984.09;;;18.91;62.49
40838;BME280;29632;49.168;9.848;2023-10-19T08:07:22;94986.19;;;18.89;62.61
40838;BME280;29632;49.168;9.848;2023-10-19T08:09:48;94990.63;;;18.89;62.35
40838;BME280;29632;49.168;9.848;2023-10-19T08:12:13;94973.78;;;18.90;62.52
40838;BME280;29632;49.168;9.848;2023-10-19T08:14:40;94977.22;;;18.90;62.60
40838;BME280;29632;49.168;9.848;2023-10-19T08:17:05;94984.34;;;18.90;62.55
40838;BME280;29632;49.168;9.848;2023-10-19T08:19:34;94988.81;;;18.89;62.23
40838;BME280;29632;49.168;9.848;2023-10-19T08:22:01;94980.91;;;18.89;62.30
40838;BME280;29632;49.168;9.848;2023-10-19T08:24:27;94981.94;;;18.88;62.42
40838;BME280;29632;49.168;9.848;2023-10-19T08:26:56;94995.69;;;18.90;62.42
40838;BME280;29632;49.168;9.848;2023-10-19T08:29:22;94992.56;;;18.93;62.54
40838;BME280;29632;49.168;9.848;2023-10-19T08:31:49;94971.69;;;18.92;62.56
40838;BME280;29632;49.168;9.848;2023-10-19T08:34:16;94979.16;;;18.95;62.32
40838;BME280;29632;49.168;9.848;2023-10-19T08:36:43;94987.84;;;18.95;62.54
40838;BME280;29632;49.168;9.848;2023-10-19T08:39:09;94972.25;;;18.94;62.71
40838;BME280;29632;49.168;9.848;2023-10-19T08:41:39;94978.91;;;18.96;62.41
40838;BME280;29632;49.168;9.848;2023-10-19T08:44:07;94970.00;;;19.02;62.62
40838;BME280;29632;49.168;9.848;2023-10-19T08:46:42;94962.41;;;19.06;62.72
40838;BME280;29632;49.168;9.848;2023-10-19T08:49:11;94964.34;;;19.11;62.85
40838;BME280;29632;49.168;9.848;2023-10-19T08:51:39;94959.94;;;19.16;62.47
40838;BME280;29632;49.168;9.848;2023-10-19T08:54:07;94952.63;;;19.23;62.79
40838;BME280;29632;49.168;9.848;2023-10-19T08:56:37;94960.94;;;19.32;62.87
40838;BME280;29632;49.168;9.848;2023-10-19T08:59:02;94969.75;;;19.38;62.35
40838;BME280;29632;49.168;9.848;2023-10-19T09:01:29;94961.88;;;19.43;62.72
40838;BME280;29632;49.168;9.848;2023-10-19T09:03:58;94957.72;;;19.47;62.80
40838;BME280;29632;49.168;9.848;2023-10-19T09:06:25;94963.84;;;19.53;62.65
40838;BME280;29632;49.168;9.848;2023-10-19T09:08:51;94963.94;;;19.58;62.82
40838;BME280;29632;49.168;9.848;2023-10-19T09:11:16;94963.50;;;19.66;63.04
40838;BME280;29632;49.168;9.848;2023-10-19T09:13:51;94958.06;;;19.73;62.90
40838;BME280;29632;49.168;9.848;2023-10-19T09:16:22;94961.34;;;19.80;62.90
40838;BME280;29632;49.168;9.848;2023-10-19T09:18:48;94965.63;;;19.86;62.87
40838;BME280;29632;49.168;9.848;2023-10-19T09:21:20;94960.41;;;19.91;62.75
40838;BME280;29632;49.168;9.848;2023-10-19T09:23:53;94948.84;;;19.97;62.81
40838;BME280;29632;49.168;9.848;2023-10-19T09:26:20;94946.50;;;20.01;62.81
40838;BME280;29632;49.168;9.848;2023-10-19T09:28:48;94938.88;;;20.05;63.18
40838;BME280;29632;49.168;9.848;2023-10-19T09:31:15;94944.53;;;20.13;62.88
40838;BME280;29632;49.168;9.848;2023-10-19T09:33:43;94937.59;;;20.34;62.72
40838;BME280;29632;49.168;9.848;2023-10-19T09:36:10;94932.22;;;20.56;62.36
40838;BME280;29632;49.168;9.848;2023-10-19T09:38:50;94929.44;;;20.68;62.27
40838;BME280;29632;49.168;9.848;2023-10-19T09:41:22;94928.78;;;20.83;61.98
40838;BME280;29632;49.168;9.848;2023-10-19T09:44:01;94930.72;;;20.98;62.25
40838;BME280;29632;49.168;9.848;2023-10-19T09:46:32;94933.72;;;21.12;62.29
40838;BME280;29632;49.168;9.848;2023-10-19T09:48:59;94927.72;;;21.22;62.03
40838;BME280;29632;49.168;9.848;2023-10-19T09:51:25;94925.63;;;21.29;62.06
40838;BME280;29632;49.168;9.848;2023-10-19T09:57:18;94923.31;;;21.43;62.33
40838;BME280;29632;49.168;9.848;2023-10-19T09:59:54;94914.63;;;21.53;62.38
40838;BME280;29632;49.168;9.848;2023-10-19T10:02:23;94919.19;;;21.62;62.36
40838;BME280;29632;49.168;9.848;2023-10-19T10:04:48;94912.59;;;21.70;62.37
40838;BME280;29632;49.168;9.848;2023-10-19T10:07:15;94906.81;;;21.78;62.32
40838;BME280;29632;49.168;9.848;2023-10-19T10:09:44;94916.09;;;21.81;62.33
40838;BME280;29632;49.168;9.848;2023-10-19T10:12:22;94919.81;;;21.85;62.48
40838;BME280;29632;49.168;9.848;2023-10-19T10:15:05;94914.25;;;21.86;62.74
40838;BME280;29632;49.168;9.848;2023-10-19T10:17:35;94915.31;;;21.91;62.54
40838;BME280;29632;49.168;9.848;2023-10-19T10:20:29;94921.13;;;21.87;62.67
40838;BME280;29632;49.168;9.848;2023-10-19T10:23:20;94919.03;;;21.90;62.89
40838;BME280;29632;49.168;9.848;2023-10-19T10:25:57;94920.09;;;21.94;62.75
40838;BME280;29632;49.168;9.848;2023-10-19T10:28:24;94921.72;;;21.95;62.78
40838;BME280;29632;49.168;9.848;2023-10-19T10:31:13;94917.19;;;21.95;63.13
40838;BME280;29632;49.168;9.848;2023-10-19T10:33:54;94910.84;;;22.01;63.08
40838;BME280;29632;49.168;9.848;2023-10-19T10:36:23;94902.38;;;22.10;63.25
40838;BME280;29632;49.168;9.848;2023-10-19T10:38:50;94896.03;;;22.16;63.32
40838;BME280;29632;49.168;9.848;2023-10-19T10:41:26;94898.72;;;22.21;63.61
40838;BME280;29632;49.168;9.848;2023-10-19T10:43:58;94900.84;;;22.29;63.73
40838;BME280;29632;49.168;9.848;2023-10-19T10:46:25;94898.69;;;22.26;63.41
40838;BME280;29632;49.168;9.848;2023-10-19T10:48:53;94896.06;;;22.36;63.29
40838;BME280;29632;49.168;9.848;2023-10-19T10:51:23;94893.16;;;22.43;63.33
40838;BME280;29632;49.168;9.848;2023-10-19T10:53:53;94897.16;;;22.51;63.44
40838;BME280;29632;49.168;9.848;2023-10-19T10:56:22;94885.50;;;22.57;63.28
40838;BME280;29632;49.168;9.848;2023-10-19T10:58:49;94897.44;;;22.59;63.40
40838;BME280;29632;49.168;9.848;2023-10-19T11:01:31;94898.22;;;22.60;63.35
40838;BME280;29632;49.168;9.848;2023-10-19T11:04:10;94883.34;;;22.59;63.35
40838;BME280;29632;49.168;9.848;2023-10-19T11:06:52;94881.78;;;22.58;63.34
40838;BME280;29632;49.168;9.848;2023-10-19T11:09:18;94878.31;;;22.62;63.22
40838;BME280;29632;49.168;9.848;2023-10-19T11:11:45;94871.69;;;22.65;63.35
40838;BME280;29632;49.168;9.848;2023-10-19T11:14:11;94874.63;;;22.69;63.52
40838;BME280;29632;49.168;9.848;2023-10-19T11:16:37;94877.00;;;22.70;63.58
40838;BME280;29632;49.168;9.848;2023-10-19T11:19:05;94878.84;;;22.70;63.36
40838;BME280;29632;49.168;9.848;2023-10-19T11:21:31;94871.69;;;22.70;63.43
40838;BME280;29632;49.168;9.848;2023-10-19T11:23:57;94866.66;;;22.69;63.79
40838;BME280;29632;49.168;9.848;2023-10-19T11:26:24;94875.13;;;22.71;63.49
40838;BME280;29632;49.168;9.848;2023-10-19T11:29:01;94873.53;;;22.70;63.70
40838;BME280;29632;49.168;9.848;2023-10-19T11:31:29;94871.44;;;22.72;63.64
40838;BME280;29632;49.168;9.848;2023-10-19T11:34:03;94874.59;;;22.74;63.27
40838;BME280;29632;49.168;9.848;2023-10-19T11:36:29;94877.78;;;22.76;63.59
40838;BME280;29632;49.168;9.848;2023-10-19T11:38:55;94871.44;;;22.77;63.51
40838;BME280;29632;49.168;9.848;2023-10-19T11:41:21;94875.66;;;22.78;63.26
40838;BME280;29632;49.168;9.848;2023-10-19T11:43:49;94867.97;;;22.76;63.28
40838;BME280;29632;49.168;9.848;2023-10-19T11:46:16;94871.13;;;22.78;63.21
40838;BME280;29632;49.168;9.848;2023-10-19T11:48:50;94871.94;;;22.79;63.21
40838;BME280;29632;49.168;9.848;2023-10-19T11:51:16;94873.78;;;22.78;63.06
40838;BME280;29632;49.168;9.848;2023-10-19T11:53:42;94864.78;;;22.79;63.02
40838;BME280;29632;49.168;9.848;2023-10-19T11:56:11;94871.13;;;22.78;63.10
40838;BME280;29632;49.168;9.848;2023-10-19T11:58:39;94866.91;;;22.77;62.98
40838;BME280;29632;49.168;9.848;2023-10-19T12:01:08;94868.78;;;22.77;63.00
40838;BME280;29632;49.168;9.848;2023-10-19T12:03:40;94873.00;;;22.68;63.19
40838;BME280;29632;49.168;9.848;2023-10-19T12:06:07;94871.44;;;22.67;63.21
40838;BME280;29632;49.168;9.848;2023-10-19T12:08:35;94871.44;;;22.67;63.31
40838;BME280;29632;49.168;9.848;2023-10-19T12:11:04;94869.84;;;22.66;63.18
40838;BME280;29632;49.168;9.848;2023-10-19T12:13:43;94874.34;;;22.65;63.29
40838;BME280;29632;49.168;9.848;2023-10-19T12:16:13;94870.34;;;22.62;63.12
40838;BME280;29632;49.168;9.848;2023-10-19T12:18:44;94864.78;;;22.59;63.16
40838;BME280;29632;49.168;9.848;2023-10-19T12:21:11;94860.81;;;22.56;63.10
40838;BME280;29632;49.168;9.848;2023-10-19T12:23:41;94858.97;;;22.57;63.01
40838;BME280;29632;49.168;9.848;2023-10-19T12:26:07;94857.09;;;22.57;63.01
40838;BME280;29632;49.168;9.848;2023-10-19T12:28:42;94860.56;;;22.58;62.78
40838;BME280;29632;49.168;9.848;2023-10-19T12:31:09;94864.53;;;22.55;62.82
40838;BME280;29632;49.168;9.848;2023-10-19T12:33:35;94862.94;;;22.54;62.73
40838;BME280;29632;49.168;9.848;2023-10-19T12:36:02;94854.19;;;22.54;62.57
40838;BME280;29632;49.168;9.848;2023-10-19T12:38:44;94852.34;;;22.49;62.58
40838;BME280;29632;49.168;9.848;2023-10-19T12:41:09;94857.38;;;22.46;62.79
40838;BME280;29632;49.168;9.848;2023-10-19T12:43:35;94853.66;;;22.41;62.71
40838;BME280;29632;49.168;9.848;2023-10-19T12:46:01;94859.50;;;22.38;62.81
40838;BME280;29632;49.168;9.848;2023-10-19T12:48:27;94853.66;;;22.36;63.01
40838;BME280;29632;49.168;9.848;2023-10-19T12:50:56;94852.09;;;22.35;63.02
40838;BME280;29632;49.168;9.848;2023-10-19T12:53:21;94849.94;;;22.32;63.11
40838;BME280;29632;49.168;9.848;2023-10-19T12:55:50;94844.91;;;22.31;63.18
40838;BME280;29632;49.168;9.848;2023-10-19T12:58:17;94839.34;;;22.27;63.18
40838;BME280;29632;49.168;9.848;2023-10-19T13:00:45;94842.22;;;22.20;63.39
40838;BME280;29632;49.168;9.848;2023-10-19T13:03:13;94849.13;;;22.16;63.55
40838;BME280;29632;49.168;9.848;2023-10-19T13:05:43;94835.06;;;22.16;63.67
40838;BME280;29632;49.168;9.848;2023-10-19T13:08:11;94836.66;;;22.17;63.77
40838;BME280;29632;49.168;9.848;2023-10-19T13:10:45;94832.94;;;22.18;63.52
40838;BME280;29632;49.168;9.848;2023-10-19T13:13:15;94836.91;;;22.15;63.98
40838;BME280;29632;49.168;9.848;2023-10-19T13:15:45;94828.44;;;22.13;63.99
40838;BME280;29632;49.168;9.848;2023-10-19T13:18:12;94813.31;;;22.14;63.94
40838;BME280;29632;49.168;9.848;2023-10-19T13:20:40;94822.88;;;22.15;63.81
40838;BME280;29632;49.168;9.848;2023-10-19T13:23:09;94811.47;;;22.14;63.87
40838;BME280;29632;49.168;9.848;2023-10-19T13:25:41;94804.31;;;22.15;63.99
40838;BME280;29632;49.168;9.848;2023-10-19T13:28:13;94796.38;;;22.15;63.86
40838;BME280;29632;49.168;9.848;2023-10-19T13:30:47;94801.13;;;22.13;64.11